createdAt,value
2022-10-08T00:01:56.720Z,11.20
2022-10-08T00:04:25.142Z,11.20
2022-10-08T00:06:54.228Z,11.30
2022-10-08T00:09:22.627Z,11.30
2022-10-08T00:11:50.905Z,11.30
2022-10-08T00:14:22.048Z,11.30
2022-10-08T00:16:52.131Z,11.30
2022-10-08T00:19:21.731Z,11.30
2022-10-08T00:21:53.358Z,11.20
2022-10-08T00:24:22.203Z,11.20
2022-10-08T00:26:54.167Z,11.10
2022-10-08T00:29:25.742Z,11.00
2022-10-08T00:31:55.428Z,11.10
2022-10-08T00:34:26.762Z,11.10
2022-10-08T00:36:56.654Z,11.10
2022-10-08T00:39:26.166Z,11.10
2022-10-08T00:41:56.442Z,11.10
2022-10-08T00:44:50.874Z,11.10
2022-10-08T00:47:25.798Z,11.00
2022-10-08T00:50:00.299Z,11.00
2022-10-08T00:52:37.108Z,11.00
2022-10-08T00:55:10.957Z,11.00
2022-10-08T00:57:42.893Z,10.90
2022-10-08T01:00:16.691Z,10.90
2022-10-08T01:02:46.507Z,10.90
2022-10-08T01:05:21.544Z,10.80
2022-10-08T01:07:56.327Z,10.70
2022-10-08T01:10:34.732Z,10.70
2022-10-08T01:13:18.154Z,10.70
2022-10-08T01:15:57.957Z,10.70
2022-10-08T01:18:35.576Z,10.70
2022-10-08T01:21:11.852Z,10.50
2022-10-08T01:24:03.232Z,10.60
2022-10-08T01:26:43.573Z,10.50
2022-10-08T01:29:21.364Z,10.50
2022-10-08T01:31:54.093Z,10.50
2022-10-08T01:34:31.531Z,10.40
2022-10-08T01:37:02.677Z,10.40
2022-10-08T01:39:36.895Z,10.40
2022-10-08T01:42:09.721Z,10.30
2022-10-08T01:44:43.245Z,10.30
2022-10-08T01:47:15.606Z,10.20
2022-10-08T01:49:46.643Z,10.20
2022-10-08T01:52:22.537Z,10.10
2022-10-08T01:54:55.194Z,10.10
2022-10-08T01:57:25.751Z,10.00
2022-10-08T02:00:00.139Z,10.00
2022-10-08T02:02:28.637Z,10.00
2022-10-08T02:04:57.002Z,9.90
2022-10-08T02:07:29.010Z,10.00
2022-10-08T02:10:06.015Z,9.90
2022-10-08T02:12:34.620Z,9.80
2022-10-08T02:15:06.484Z,9.70
2022-10-08T02:17:46.995Z,9.80
2022-10-08T02:20:20.666Z,9.70
2022-10-08T02:22:54.906Z,9.60
2022-10-08T02:25:29.875Z,9.60
2022-10-08T02:28:07.578Z,9.50
2022-10-08T02:30:45.558Z,9.60
2022-10-08T02:33:19.749Z,9.60
2022-10-08T02:35:53.173Z,9.60
2022-10-08T02:38:26.851Z,9.60
2022-10-08T02:41:02.206Z,9.70
2022-10-08T02:43:33.998Z,9.70
2022-10-08T02:46:09.849Z,9.70
2022-10-08T02:48:42.460Z,9.70
2022-10-08T02:51:15.647Z,9.80
2022-10-08T02:53:45.722Z,9.90
2022-10-08T02:56:21.181Z,9.90
2022-10-08T02:58:50.849Z,10.00
2022-10-08T03:01:26.827Z,10.00
2022-10-08T03:04:01.634Z,10.00
2022-10-08T03:06:31.502Z,10.00
2022-10-08T03:09:01.573Z,9.90
2022-10-08T03:11:31.522Z,9.90
2022-10-08T03:14:03.792Z,9.90
2022-10-08T03:16:42.626Z,10.00
2022-10-08T03:19:13.539Z,10.00
2022-10-08T03:21:44.616Z,9.90
2022-10-08T03:24:15.435Z,9.90
2022-10-08T03:26:44.929Z,9.90
2022-10-08T03:29:13.794Z,9.80
2022-10-08T03:31:43.509Z,9.90
2022-10-08T03:34:11.976Z,9.90
2022-10-08T03:36:40.415Z,9.90
2022-10-08T03:39:10.171Z,9.90
2022-10-08T03:41:38.590Z,9.90
2022-10-08T03:44:09.101Z,10.00
2022-10-08T03:46:37.538Z,9.90
2022-10-08T03:49:07.310Z,9.90
2022-10-08T03:51:35.710Z,9.90
2022-10-08T03:54:04.221Z,9.80
2022-10-08T03:56:34.577Z,9.80
2022-10-08T03:59:03.862Z,9.80
2022-10-08T04:01:32.241Z,9.80
2022-10-08T04:04:03.727Z,9.80
2022-10-08T04:06:33.497Z,9.80
2022-10-08T04:09:02.716Z,9.60
2022-10-08T04:11:31.452Z,9.50
2022-10-08T04:14:01.209Z,9.50
2022-10-08T04:16:29.583Z,9.40
2022-10-08T04:18:58.184Z,9.30
2022-10-08T04:21:26.420Z,9.40
2022-10-08T04:23:57.332Z,9.30
2022-10-08T04:26:25.506Z,9.30
2022-10-08T04:28:53.851Z,9.10
2022-10-08T04:31:23.579Z,9.10
2022-10-08T04:33:52.962Z,9.10
2022-10-08T04:36:23.073Z,9.00
2022-10-08T04:38:52.035Z,8.90
2022-10-08T04:41:23.639Z,8.90
2022-10-08T04:43:53.142Z,9.00
2022-10-08T04:46:23.287Z,9.00
2022-10-08T04:48:52.957Z,9.00
2022-10-08T04:51:23.274Z,9.00
2022-10-08T04:53:51.994Z,8.90
2022-10-08T04:56:23.113Z,9.00
2022-10-08T04:58:56.199Z,9.00
2022-10-08T05:01:28.489Z,9.00
2022-10-08T05:03:58.064Z,9.00
2022-10-08T05:06:28.299Z,9.10
2022-10-08T05:08:56.633Z,9.10
2022-10-08T05:11:30.122Z,9.00
2022-10-08T05:13:59.833Z,9.10
2022-10-08T05:16:28.849Z,9.10
2022-10-08T05:18:58.089Z,9.10
2022-10-08T05:21:29.812Z,9.20
2022-10-08T05:23:59.920Z,9.20
2022-10-08T05:27:01.994Z,9.30
2022-10-08T05:29:20.556Z,9.30
2022-10-08T05:31:48.912Z,9.30
2022-10-08T05:34:17.290Z,9.20
2022-10-08T05:36:46.318Z,9.20
2022-10-08T05:39:15.434Z,9.20
2022-10-08T05:41:45.615Z,9.10
2022-10-08T05:44:14.370Z,9.10
2022-10-08T05:46:42.774Z,9.10
2022-10-08T05:49:20.904Z,9.00
2022-10-08T05:51:51.573Z,9.10
2022-10-08T05:54:20.255Z,9.10
2022-10-08T05:56:50.096Z,9.10
2022-10-08T05:59:20.325Z,9.00
2022-10-08T06:01:49.088Z,9.10
2022-10-08T06:04:19.873Z,9.20
2022-10-08T06:06:48.446Z,9.30
2022-10-08T06:09:18.224Z,9.40
2022-10-08T06:11:47.555Z,9.50
2022-10-08T06:14:19.270Z,9.60
2022-10-08T06:16:47.847Z,9.50
2022-10-08T06:19:17.249Z,9.60
2022-10-08T06:21:46.529Z,9.60
2022-10-08T06:24:18.802Z,9.70
2022-10-08T06:26:50.651Z,9.70
2022-10-08T06:29:22.515Z,9.70
2022-10-08T06:31:50.995Z,9.70
2022-10-08T06:34:19.663Z,9.80
2022-10-08T06:36:48.773Z,9.90
2022-10-08T06:39:18.987Z,10.00
2022-10-08T06:41:47.334Z,10.00
2022-10-08T06:44:19.454Z,10.10
2022-10-08T06:46:49.319Z,10.20
2022-10-08T06:49:19.594Z,10.10
2022-10-08T06:51:48.050Z,10.20
2022-10-08T06:54:16.877Z,10.20
2022-10-08T06:56:49.818Z,10.20
2022-10-08T06:59:18.407Z,10.20
2022-10-08T07:01:48.435Z,10.30
2022-10-08T07:04:17.973Z,10.30
2022-10-08T07:06:47.655Z,10.50
2022-10-08T07:09:17.906Z,10.60
2022-10-08T07:11:49.110Z,10.60
2022-10-08T07:14:17.520Z,10.60
2022-10-08T07:16:46.353Z,10.60
2022-10-08T07:19:16.363Z,10.60
2022-10-08T07:21:44.492Z,10.70
2022-10-08T07:24:14.829Z,10.70
2022-10-08T07:26:45.113Z,10.70
2022-10-08T07:29:15.177Z,10.70
2022-10-08T07:31:43.752Z,10.50
2022-10-08T07:34:14.782Z,10.40
2022-10-08T07:36:45.969Z,10.30
2022-10-08T07:39:16.656Z,10.30
2022-10-08T07:41:44.916Z,10.30
2022-10-08T07:44:15.269Z,10.20
2022-10-08T07:46:48.132Z,10.10
2022-10-08T07:49:21.060Z,10.10
2022-10-08T07:51:50.784Z,9.90
2022-10-08T07:54:20.766Z,9.80
2022-10-08T07:56:49.387Z,9.80
2022-10-08T07:59:17.798Z,9.80
2022-10-08T08:01:46.391Z,9.90
2022-10-08T08:04:18.954Z,10.00
2022-10-08T08:06:48.694Z,10.10
2022-10-08T08:09:18.680Z,10.20
2022-10-08T08:11:49.422Z,10.20
2022-10-08T08:14:20.532Z,9.90
2022-10-08T08:16:50.567Z,9.80
2022-10-08T08:19:19.974Z,9.80
2022-10-08T08:21:48.861Z,9.80
2022-10-08T08:24:20.977Z,9.80
2022-10-08T08:26:49.318Z,9.80
2022-10-08T08:29:21.939Z,9.90
2022-10-08T08:31:51.050Z,9.90
2022-10-08T08:34:23.052Z,9.90
2022-10-08T08:36:54.707Z,9.90
2022-10-08T08:39:29.272Z,9.80
2022-10-08T08:42:25.047Z,10.00
2022-10-08T08:45:03.375Z,10.00
2022-10-08T08:47:37.672Z,10.00
2022-10-08T08:50:10.166Z,10.00
2022-10-08T08:52:43.592Z,10.00
2022-10-08T08:55:16.254Z,10.10
2022-10-08T08:57:57.580Z,10.10
2022-10-08T09:00:33.008Z,10.10
2022-10-08T09:03:03.626Z,10.20
2022-10-08T09:05:34.724Z,10.10
2022-10-08T09:08:08.936Z,10.20
2022-10-08T09:10:48.310Z,10.40
2022-10-08T09:13:20.523Z,10.30
2022-10-08T09:15:48.934Z,10.30
2022-10-08T09:18:25.207Z,10.40
2022-10-08T09:20:55.543Z,10.30
2022-10-08T09:23:25.209Z,10.30
2022-10-08T09:26:01.483Z,10.20
2022-10-08T09:28:42.026Z,10.20
2022-10-08T09:31:27.593Z,10.20
2022-10-08T09:33:59.317Z,10.20
2022-10-08T09:36:41.820Z,10.00
2022-10-08T09:39:19.433Z,10.00
2022-10-08T09:42:12.055Z,10.10
2022-10-08T09:44:43.503Z,10.10
2022-10-08T09:47:14.148Z,10.20
2022-10-08T09:49:49.854Z,10.20
2022-10-08T09:52:23.581Z,10.20
2022-10-08T09:54:58.481Z,10.20
2022-10-08T09:57:29.962Z,10.20
2022-10-08T10:00:00.139Z,10.30
2022-10-08T10:02:32.062Z,10.30
2022-10-08T10:05:05.923Z,10.40
2022-10-08T10:07:39.989Z,10.40
2022-10-08T10:10:19.543Z,10.60
2022-10-08T10:12:54.691Z,10.80
2022-10-08T10:15:31.263Z,10.90
2022-10-08T10:18:03.239Z,11.00
2022-10-08T10:20:38.317Z,11.00
2022-10-08T10:23:15.478Z,11.20
2022-10-08T10:25:49.602Z,11.40
2022-10-08T10:28:26.333Z,11.20
2022-10-08T10:31:00.893Z,11.30
2022-10-08T10:33:33.780Z,11.30
2022-10-08T10:36:06.561Z,11.30
2022-10-08T10:38:43.250Z,11.30
2022-10-08T10:41:19.710Z,11.10
2022-10-08T10:43:52.907Z,11.30
2022-10-08T10:46:30.079Z,11.40
2022-10-08T10:48:58.774Z,11.50
2022-10-08T10:51:42.294Z,11.70
2022-10-08T10:54:27.082Z,12.10
2022-10-08T10:57:01.809Z,12.70
2022-10-08T10:59:41.427Z,13.30
2022-10-08T11:02:22.033Z,13.50
2022-10-08T11:05:01.989Z,14.00
2022-10-08T11:07:52.806Z,14.10
2022-10-08T11:10:33.766Z,14.00
2022-10-08T11:13:12.637Z,14.00
2022-10-08T11:15:50.509Z,13.80
2022-10-08T11:18:31.087Z,13.70
2022-10-08T11:21:13.968Z,13.40
2022-10-08T11:23:58.058Z,13.30
2022-10-08T11:26:33.455Z,13.10
2022-10-08T11:29:10.798Z,13.10
2022-10-08T11:31:46.543Z,13.40
2022-10-08T11:34:27.899Z,13.80
2022-10-08T11:37:04.793Z,14.30
2022-10-08T11:39:43.441Z,14.80
2022-10-08T11:42:21.650Z,15.10
2022-10-08T11:44:50.595Z,15.60
2022-10-08T11:47:54.506Z,15.80
2022-10-08T11:50:31.393Z,16.00
2022-10-08T11:53:14.381Z,16.30
2022-10-08T11:55:52.293Z,16.40
2022-10-08T11:58:29.434Z,16.20
2022-10-08T12:01:04.373Z,15.90
2022-10-08T12:03:37.379Z,15.40
2022-10-08T12:06:19.158Z,15.10
2022-10-08T12:08:53.463Z,14.70
2022-10-08T12:11:50.748Z,14.40
2022-10-08T12:14:47.359Z,14.20
2022-10-08T12:17:17.836Z,13.10
2022-10-08T12:20:05.238Z,12.70
2022-10-08T12:22:45.299Z,12.40
2022-10-08T12:25:37.013Z,12.30
2022-10-08T12:28:40.456Z,12.20
2022-10-08T12:31:33.332Z,12.00
2022-10-08T12:34:14.123Z,12.00
2022-10-08T12:36:58.445Z,12.10
2022-10-08T12:39:39.253Z,12.50
2022-10-08T12:42:20.409Z,13.30
2022-10-08T12:45:05.722Z,14.20
2022-10-08T12:47:43.115Z,14.80
2022-10-08T12:50:31.638Z,14.90
2022-10-08T12:53:02.753Z,15.20
2022-10-08T12:55:38.036Z,15.40
2022-10-08T12:58:07.037Z,15.60
2022-10-08T13:00:36.058Z,15.90
2022-10-08T13:03:06.133Z,16.10
2022-10-08T13:05:36.844Z,16.10
2022-10-08T13:08:32.426Z,15.90
2022-10-08T13:11:03.026Z,15.70
2022-10-08T13:13:37.224Z,15.70
2022-10-08T13:16:08.363Z,15.70
2022-10-08T13:18:38.237Z,15.70
2022-10-08T13:21:08.956Z,15.80
2022-10-08T13:23:44.632Z,15.80
2022-10-08T13:26:40.870Z,15.80
2022-10-08T13:29:30.794Z,15.90
2022-10-08T13:32:06.146Z,16.30
2022-10-08T13:34:43.240Z,16.80
2022-10-08T13:37:14.224Z,16.80
2022-10-08T13:39:54.472Z,17.50
2022-10-08T13:42:28.273Z,17.90
2022-10-08T13:44:58.405Z,17.50
2022-10-08T13:47:29.012Z,17.60
2022-10-08T13:50:01.803Z,18.30
2022-10-08T13:52:34.007Z,18.40
2022-10-08T13:55:06.754Z,18.20
2022-10-08T13:57:35.660Z,17.90
2022-10-08T14:00:23.167Z,17.00
2022-10-08T14:02:52.320Z,16.60
2022-10-08T14:05:23.220Z,16.00
2022-10-08T14:07:54.593Z,15.80
2022-10-08T14:10:25.200Z,15.90
2022-10-08T14:12:54.840Z,15.70
2022-10-08T14:15:24.483Z,15.50
2022-10-08T14:17:53.567Z,15.20
2022-10-08T14:20:25.148Z,15.30
2022-10-08T14:22:53.731Z,15.30
2022-10-08T14:25:25.763Z,15.30
2022-10-08T14:27:53.940Z,15.40
2022-10-08T14:30:24.164Z,15.30
2022-10-08T14:32:52.549Z,15.00
2022-10-08T14:35:21.739Z,14.70
2022-10-08T14:37:50.467Z,14.50
2022-10-08T14:40:21.545Z,14.30
2022-10-08T14:42:54.039Z,14.30
2022-10-08T14:45:23.016Z,14.10
2022-10-08T14:47:52.180Z,14.20
2022-10-08T14:50:20.699Z,14.30
2022-10-08T14:52:49.064Z,14.50
2022-10-08T14:55:17.754Z,14.40
2022-10-08T14:57:46.069Z,14.30
2022-10-08T15:00:16.923Z,14.00
2022-10-08T15:02:45.378Z,13.60
2022-10-08T15:05:13.929Z,13.60
2022-10-08T15:07:42.342Z,13.40
2022-10-08T15:10:10.930Z,13.50
2022-10-08T15:12:39.476Z,13.70
2022-10-08T15:15:08.568Z,13.70
2022-10-08T15:17:38.392Z,13.70
2022-10-08T15:20:07.593Z,13.70
2022-10-08T15:22:36.077Z,13.80
2022-10-08T15:25:05.674Z,13.90
2022-10-08T15:27:34.100Z,13.60
2022-10-08T15:30:02.415Z,13.30
2022-10-08T15:32:30.864Z,13.30
2022-10-08T15:35:03.126Z,13.30
2022-10-08T15:37:32.013Z,13.10
2022-10-08T15:40:00.761Z,13.00
2022-10-08T15:42:36.757Z,13.00
2022-10-08T15:45:08.314Z,12.90
2022-10-08T15:47:36.666Z,13.00
2022-10-08T15:50:07.677Z,12.90
2022-10-08T15:52:35.988Z,12.90
2022-10-08T15:55:05.666Z,12.80
2022-10-08T15:57:36.499Z,12.80
2022-10-08T16:00:07.239Z,12.70
2022-10-08T16:02:38.762Z,12.60
2022-10-08T16:05:10.349Z,12.50
2022-10-08T16:07:39.492Z,12.50
2022-10-08T16:10:10.082Z,12.40
2022-10-08T16:12:38.511Z,12.50
2022-10-08T16:15:07.576Z,12.30
2022-10-08T16:17:35.951Z,12.30
2022-10-08T16:20:04.580Z,12.20
2022-10-08T16:22:35.566Z,12.10
2022-10-08T16:25:03.938Z,12.20
2022-10-08T16:27:32.105Z,12.20
2022-10-08T16:30:00.335Z,12.10
2022-10-08T16:32:30.987Z,12.00
2022-10-08T16:35:00.388Z,12.00
2022-10-08T16:37:30.924Z,11.90
2022-10-08T16:40:05.498Z,11.90
2022-10-08T16:42:33.801Z,11.80
2022-10-08T16:45:02.171Z,11.70
2022-10-08T16:47:30.328Z,11.60
2022-10-08T16:50:00.695Z,11.50
2022-10-08T16:52:28.901Z,11.40
2022-10-08T16:54:57.568Z,11.30
2022-10-08T16:57:30.999Z,11.50
2022-10-08T17:00:01.609Z,11.50
2022-10-08T17:02:30.039Z,11.60
2022-10-08T17:04:58.497Z,11.40
2022-10-08T17:07:27.075Z,11.30
2022-10-08T17:09:57.054Z,11.30
2022-10-08T17:12:27.792Z,11.20
2022-10-08T17:14:56.292Z,11.20
2022-10-08T17:17:24.639Z,11.30
2022-10-08T17:19:54.101Z,11.20
2022-10-08T17:22:22.291Z,11.10
2022-10-08T17:24:50.539Z,11.10
2022-10-08T17:27:18.838Z,11.10
2022-10-08T17:29:53.858Z,11.00
2022-10-08T17:32:22.399Z,10.90
2022-10-08T17:34:50.648Z,11.00
2022-10-08T17:37:19.961Z,11.10
2022-10-08T17:39:48.296Z,11.00
2022-10-08T17:42:17.051Z,10.90
2022-10-08T17:44:45.429Z,11.00
2022-10-08T17:47:15.849Z,11.00
2022-10-08T17:49:44.252Z,11.10
2022-10-08T17:52:14.953Z,11.10
2022-10-08T17:54:43.436Z,11.10
2022-10-08T17:57:11.853Z,11.00
2022-10-08T17:59:41.612Z,10.90
2022-10-08T18:02:10.587Z,10.90
2022-10-08T18:04:40.893Z,11.00
2022-10-08T18:07:09.341Z,10.90
2022-10-08T18:09:37.976Z,10.90
2022-10-08T18:12:06.476Z,10.80
2022-10-08T18:14:34.771Z,10.80
2022-10-08T18:17:03.067Z,10.60
2022-10-08T18:19:31.316Z,10.50
2022-10-08T18:22:01.244Z,10.50
2022-10-08T18:24:31.981Z,10.50
2022-10-08T18:27:00.287Z,10.60
2022-10-08T18:29:31.106Z,10.60
2022-10-08T18:31:59.455Z,10.30
2022-10-08T18:34:27.732Z,10.20
2022-10-08T18:36:57.919Z,10.10
2022-10-08T18:39:28.798Z,10.10
2022-10-08T18:41:57.093Z,10.10
2022-10-08T18:44:27.441Z,10.10
2022-10-08T18:46:55.547Z,10.20
2022-10-08T18:49:30.271Z,10.00
2022-10-08T18:51:59.099Z,10.00
2022-10-08T18:54:28.965Z,9.90
2022-10-08T18:57:00.126Z,10.00
2022-10-08T18:59:31.197Z,10.00
2022-10-08T19:02:01.876Z,10.00
2022-10-08T19:04:31.748Z,9.90
2022-10-08T19:06:59.968Z,9.80
2022-10-08T19:09:32.389Z,9.80
2022-10-08T19:12:01.286Z,9.80
2022-10-08T19:14:31.997Z,9.90
2022-10-08T19:17:00.505Z,9.80
2022-10-08T19:19:29.591Z,9.80
2022-10-08T19:22:02.289Z,9.80
2022-10-08T19:24:39.955Z,9.70
2022-10-08T19:27:09.609Z,9.70
2022-10-08T19:29:39.442Z,9.60
2022-10-08T19:32:07.668Z,9.70
2022-10-08T19:34:42.918Z,9.70
2022-10-08T19:37:11.353Z,9.70
2022-10-08T19:39:44.090Z,9.80
2022-10-08T19:42:13.979Z,9.60
2022-10-08T19:44:42.272Z,9.60
2022-10-08T19:47:11.024Z,9.60
2022-10-08T19:49:39.389Z,9.60
2022-10-08T19:52:08.098Z,9.50
2022-10-08T19:54:37.741Z,9.50
2022-10-08T19:57:07.630Z,9.50
2022-10-08T19:59:35.843Z,9.50
2022-10-08T20:02:04.380Z,9.40
2022-10-08T20:04:32.888Z,9.50
2022-10-08T20:07:02.296Z,9.40
2022-10-08T20:09:37.211Z,9.40
2022-10-08T20:12:07.277Z,9.30
2022-10-08T20:14:36.717Z,9.20
2022-10-08T20:17:05.018Z,9.20
2022-10-08T20:19:34.111Z,9.10
2022-10-08T20:22:02.689Z,9.10
2022-10-08T20:24:30.917Z,9.00
2022-10-08T20:26:59.164Z,8.80
2022-10-08T20:29:31.143Z,8.80
2022-10-08T20:32:03.810Z,8.80
2022-10-08T20:34:33.488Z,8.80
2022-10-08T20:37:02.979Z,8.80
2022-10-08T20:39:31.422Z,8.80
2022-10-08T20:42:00.233Z,8.90
2022-10-08T20:44:32.455Z,8.80
2022-10-08T20:47:01.927Z,8.70
2022-10-08T20:49:36.069Z,8.70
2022-10-08T20:52:08.154Z,8.70
2022-10-08T20:54:36.656Z,8.80
2022-10-08T20:57:08.046Z,8.70
2022-10-08T20:59:37.693Z,8.60
2022-10-08T21:02:06.531Z,8.50
2022-10-08T21:04:34.891Z,8.40
2022-10-08T21:07:03.176Z,8.40
2022-10-08T21:09:31.774Z,8.30
2022-10-08T21:12:00.181Z,8.40
2022-10-08T21:14:29.799Z,8.40
2022-10-08T21:16:59.542Z,8.50
2022-10-08T21:19:28.410Z,8.60
2022-10-08T21:21:56.965Z,8.60
2022-10-08T21:24:25.612Z,8.70
2022-10-08T21:26:53.862Z,8.80
2022-10-08T21:29:22.097Z,8.60
2022-10-08T21:31:50.662Z,8.40
2022-10-08T21:34:22.724Z,8.30
2022-10-08T21:36:52.315Z,8.30
2022-10-08T21:39:22.626Z,8.10
2022-10-08T21:41:52.538Z,8.00
2022-10-08T21:44:20.962Z,7.90
2022-10-08T21:46:49.698Z,8.00
2022-10-08T21:49:21.041Z,7.80
2022-10-08T21:51:51.804Z,7.70
2022-10-08T21:54:22.829Z,7.60
2022-10-08T21:56:51.249Z,7.60
2022-10-08T21:59:21.950Z,7.40
2022-10-08T22:01:51.943Z,7.40
2022-10-08T22:04:24.614Z,7.40
2022-10-08T22:06:54.476Z,7.20
2022-10-08T22:09:24.481Z,7.30
2022-10-08T22:11:54.629Z,7.40
2022-10-08T22:14:25.660Z,7.40
2022-10-08T22:16:53.983Z,7.40
2022-10-08T22:19:23.714Z,7.40
2022-10-08T22:21:53.459Z,7.30
2022-10-08T22:24:21.713Z,7.40
2022-10-08T22:26:50.107Z,7.20
2022-10-08T22:29:19.884Z,7.20
2022-10-08T22:31:48.949Z,7.40
2022-10-08T22:34:17.233Z,7.60
2022-10-08T22:36:46.864Z,7.60
2022-10-08T22:39:18.272Z,7.60
2022-10-08T22:41:46.420Z,7.70
2022-10-08T22:44:14.550Z,7.70
2022-10-08T22:46:42.942Z,7.60
2022-10-08T22:49:13.330Z,7.60
2022-10-08T22:51:43.827Z,7.60
2022-10-08T22:54:13.701Z,7.80
2022-10-08T22:56:43.740Z,7.90
2022-10-08T22:59:14.199Z,7.90
2022-10-08T23:01:42.498Z,7.90
2022-10-08T23:04:12.918Z,7.80
2022-10-08T23:06:41.368Z,7.70
2022-10-08T23:09:16.362Z,7.60
2022-10-08T23:11:44.687Z,7.60
2022-10-08T23:14:12.906Z,7.70
2022-10-08T23:16:41.850Z,7.70
2022-10-08T23:19:11.732Z,7.60
2022-10-08T23:21:43.483Z,7.50
2022-10-08T23:24:12.725Z,7.50
2022-10-08T23:26:42.380Z,7.50
2022-10-08T23:29:13.965Z,7.50
2022-10-08T23:31:42.128Z,7.50
2022-10-08T23:34:10.595Z,7.40
2022-10-08T23:36:40.928Z,7.30
2022-10-08T23:39:12.687Z,7.40
2022-10-08T23:41:42.602Z,7.30
2022-10-08T23:44:13.495Z,7.20
2022-10-08T23:46:41.687Z,7.20
2022-10-08T23:49:10.052Z,7.10
2022-10-08T23:51:38.134Z,7.20
2022-10-08T23:54:09.996Z,7.20
2022-10-08T23:56:40.959Z,7.20
2022-10-08T23:59:11.250Z,7.10
